Time;durP1;ratioP1;P1;durP2;ratioP2;P2;SDS_P1;SDS_P2;PMS_P1;PMS_P2;Temp;Humidity;BMP_temperature;BMP_pressure;BME280_temperature;BME280_humidity;BME280_pressure;Samples;Min_cycle;Max_cycle;Signal;HPM_P1;HPM_P2
2022/10/06 00:01:45;;;;;;;;;;;;;;;9.90;100.00;98594.19;7382978;19;19946;-62
2022/10/06 00:04:15;;;;;;;;;;;;;;;9.75;100.00;98595.84;7385806;19;20660;-59
2022/10/06 00:06:44;;;;;;;;;;;;;;;9.63;100.00;98604.34;7380265;19;19919;-64
2022/10/06 00:09:13;;;;;;;;;;;;;;;9.82;100.00;98610.38;7385175;19;19910;-59
2022/10/06 00:11:46;;;;;;;;;;;;;;;9.92;100.00;98613.34;7385838;19;19914;-60
2022/10/06 00:14:16;;;;;;;;;;;;;;;10.02;100.00;98611.91;7376872;19;19939;-66
2022/10/06 00:16:45;;;;;;;;;;;;;;;10.05;100.00;98609.13;7383328;19;20274;-61
2022/10/06 00:19:15;;;;;;;;;;;;;;;9.85;100.00;98618.06;7384772;19;19932;-61
2022/10/06 00:21:44;;;;;;;;;;;;;;;9.91;100.00;98616.91;7380707;19;20327;-62
2022/10/06 00:24:14;;;;;;;;;;;;;;;10.10;100.00;98607.13;7390035;19;19955;-60
2022/10/06 00:26:46;;;;;;;;;;;;;;;10.02;100.00;98612.78;7392778;19;20332;-62
2022/10/06 00:29:17;;;;;;;;;;;;;;;9.89;100.00;98619.63;7385710;19;19921;-60
2022/10/06 00:31:52;;;;;;;;;;;;;;;10.15;100.00;98615.63;7390867;19;20316;-61
2022/10/06 00:34:24;;;;;;;;;;;;;;;10.07;100.00;98623.06;7393941;19;19915;-59
2022/10/06 00:36:55;;;;;;;;;;;;;;;9.98;100.00;98629.66;7389934;19;20013;-58
2022/10/06 00:39:25;;;;;;;;;;;;;;;9.98;100.00;98629.66;7392000;19;19915;-55
2022/10/06 00:41:58;;;;;;;;;;;;;;;10.12;100.00;98624.53;7390364;19;19918;-61
2022/10/06 00:44:28;;;;;;;;;;;;;;;10.28;100.00;98629.78;7392485;19;19918;-60
2022/10/06 00:46:57;;;;;;;;;;;;;;;10.14;100.00;98627.91;7391802;19;19914;-63
2022/10/06 00:49:30;;;;;;;;;;;;;;;10.10;100.00;98625.53;7387401;19;19915;-67
2022/10/06 00:52:02;;;;;;;;;;;;;;;10.24;100.00;98615.13;7390778;19;20254;-59
2022/10/06 00:54:33;;;;;;;;;;;;;;;10.04;100.00;98628.47;7392354;19;19938;-58
2022/10/06 00:57:06;;;;;;;;;;;;;;;10.19;100.00;98617.16;7385307;19;19942;-60
2022/10/06 00:59:39;;;;;;;;;;;;;;;10.02;100.00;98627.69;7387435;19;19915;-62
2022/10/06 01:02:16;;;;;;;;;;;;;;;10.27;100.00;98628.97;7389723;19;19924;-60
2022/10/06 01:04:51;;;;;;;;;;;;;;;10.06;100.00;98629.25;7391465;19;20010;-58
2022/10/06 01:07:22;;;;;;;;;;;;;;;9.89;100.00;98624.03;7390948;19;19922;-61
2022/10/06 01:09:52;;;;;;;;;;;;;;;10.27;100.00;98623.69;7385129;19;19938;-63
2022/10/06 01:12:25;;;;;;;;;;;;;;;10.03;100.00;98630.25;7391160;19;19921;-53
2022/10/06 01:14:56;;;;;;;;;;;;;;;10.25;100.00;98620.28;7391154;19;19978;-59
2022/10/06 01:17:30;;;;;;;;;;;;;;;10.21;100.00;98624.03;7384285;19;20343;-59
2022/10/06 01:20:02;;;;;;;;;;;;;;;10.18;100.00;98621.53;7386379;19;20355;-60
2022/10/06 01:22:37;;;;;;;;;;;;;;;10.21;100.00;98620.56;7386894;19;19967;-68
2022/10/06 01:25:08;;;;;;;;;;;;;;;10.06;100.00;98624.00;7388081;19;19919;-55
2022/10/06 01:27:39;;;;;;;;;;;;;;;10.09;100.00;98619.41;7392826;19;19982;-60
2022/10/06 01:30:10;;;;;;;;;;;;;;;10.23;100.00;98627.44;7383634;19;19943;-62
2022/10/06 01:32:42;;;;;;;;;;;;;;;9.96;100.00;98623.59;7387752;19;19919;-60
2022/10/06 01:35:13;;;;;;;;;;;;;;;9.93;100.00;98622.94;7386487;19;19915;-58
2022/10/06 01:37:46;;;;;;;;;;;;;;;10.17;100.00;98622.47;7385751;19;20336;-60
2022/10/06 01:40:17;;;;;;;;;;;;;;;10.15;100.00;98621.72;7387830;19;20324;-62
2022/10/06 01:42:49;;;;;;;;;;;;;;;10.22;100.00;98617.00;7390503;19;19929;-61
2022/10/06 01:45:19;;;;;;;;;;;;;;;10.33;100.00;98620.72;7385964;19;20301;-62
2022/10/06 01:47:49;;;;;;;;;;;;;;;10.30;100.00;98613.03;7390541;19;20363;-62
2022/10/06 01:50:18;;;;;;;;;;;;;;;10.07;100.00;98620.44;7389133;19;19919;-61
2022/10/06 01:52:52;;;;;;;;;;;;;;;10.23;100.00;98618.69;7387373;19;19911;-53
2022/10/06 01:55:22;;;;;;;;;;;;;;;10.13;100.00;98620.94;7390900;19;19911;-52
2022/10/06 01:57:55;;;;;;;;;;;;;;;10.17;100.00;98614.59;7383010;19;19914;-63
2022/10/06 02:00:28;;;;;;;;;;;;;;;10.34;100.00;98618.94;7387657;19;19936;-61
2022/10/06 02:02:59;;;;;;;;;;;;;;;10.31;100.00;98619.97;7386150;19;19978;-59
2022/10/06 02:05:29;;;;;;;;;;;;;;;10.15;100.00;98620.88;7383187;19;19911;-59
2022/10/06 02:08:05;;;;;;;;;;;;;;;10.09;100.00;98622.06;7388501;19;19918;-51
2022/10/06 02:10:37;;;;;;;;;;;;;;;10.18;100.00;98620.72;7386546;19;19984;-59
2022/10/06 02:13:15;;;;;;;;;;;;;;;10.14;100.00;98625.28;7388233;19;19929;-58
2022/10/06 02:15:46;;;;;;;;;;;;;;;10.16;100.00;98631.31;7388091;19;19919;-58
2022/10/06 02:18:16;;;;;;;;;;;;;;;10.11;100.00;98635.97;7383897;19;19917;-60
2022/10/06 02:20:48;;;;;;;;;;;;;;;10.19;100.00;98622.41;7386055;19;19915;-54
2022/10/06 02:23:21;;;;;;;;;;;;;;;10.13;100.00;98622.72;7383958;19;19934;-60
2022/10/06 02:25:50;;;;;;;;;;;;;;;10.17;100.00;98629.50;7382586;19;19955;-59
2022/10/06 02:28:20;;;;;;;;;;;;;;;10.26;100.00;98627.28;7388281;19;19951;-51
2022/10/06 02:30:49;;;;;;;;;;;;;;;9.96;100.00;98639.38;7388652;19;19923;-58
2022/10/06 02:33:19;;;;;;;;;;;;;;;10.08;100.00;98624.75;7380727;19;20320;-61
2022/10/06 02:35:48;;;;;;;;;;;;;;;10.10;100.00;98638.69;7387395;19;19986;-60
2022/10/06 02:38:24;;;;;;;;;;;;;;;9.98;100.00;98639.31;7386294;19;19925;-51
2022/10/06 02:40:55;;;;;;;;;;;;;;;10.16;100.00;98638.34;7382079;19;19939;-57
2022/10/06 02:43:27;;;;;;;;;;;;;;;10.15;100.00;98639.28;7387860;19;19926;-56
2022/10/06 02:45:58;;;;;;;;;;;;;;;10.11;100.00;98635.13;7385887;19;19974;-63
2022/10/06 02:48:29;;;;;;;;;;;;;;;9.88;100.00;98638.94;7384168;19;20819;-59
2022/10/06 02:51:00;;;;;;;;;;;;;;;10.03;100.00;98640.75;7384887;19;19915;-58
2022/10/06 02:53:33;;;;;;;;;;;;;;;10.00;100.00;98637.47;7383108;19;19921;-65
2022/10/06 02:56:02;;;;;;;;;;;;;;;9.98;100.00;98642.78;7385882;19;19915;-64
2022/10/06 02:58:32;;;;;;;;;;;;;;;9.86;100.00;98647.84;7387406;19;19974;-56
2022/10/06 03:01:07;;;;;;;;;;;;;;;10.02;100.00;98648.72;7379012;19;19926;-61
2022/10/06 03:03:40;;;;;;;;;;;;;;;9.90;100.00;98652.00;7386640;19;19915;-59
2022/10/06 03:06:20;;;;;;;;;;;;;;;9.99;100.00;98654.16;7385756;19;19922;-59
2022/10/06 03:08:58;;;;;;;;;;;;;;;9.86;100.00;98653.94;7385853;19;19987;-59
2022/10/06 03:11:31;;;;;;;;;;;;;;;10.06;100.00;98653.75;7385629;19;19939;-56
2022/10/06 03:14:01;;;;;;;;;;;;;;;10.01;100.00;98665.44;7381447;19;20260;-58
2022/10/06 03:16:32;;;;;;;;;;;;;;;10.01;100.00;98660.19;7384565;19;19933;-59
2022/10/06 03:19:04;;;;;;;;;;;;;;;10.13;100.00;98657.75;7386602;19;19914;-65
2022/10/06 03:21:35;;;;;;;;;;;;;;;9.88;100.00;98664.38;7380480;19;21017;-53
2022/10/06 03:24:07;;;;;;;;;;;;;;;9.82;100.00;98660.28;7383853;19;19918;-55
2022/10/06 03:26:39;;;;;;;;;;;;;;;9.59;100.00;98670.25;7380071;19;20466;-65
2022/10/06 03:29:11;;;;;;;;;;;;;;;9.86;100.00;98659.22;7385569;19;20315;-59
2022/10/06 03:31:52;;;;;;;;;;;;;;;9.91;100.00;98654.56;7385887;19;19915;-54
2022/10/06 03:34:22;;;;;;;;;;;;;;;9.54;100.00;98667.00;7384959;19;19926;-55
2022/10/06 03:36:54;;;;;;;;;;;;;;;9.64;100.00;98668.25;7386623;19;19929;-58
2022/10/06 03:39:29;;;;;;;;;;;;;;;9.57;100.00;98674.72;7381606;19;19914;-60
2022/10/06 03:41:59;;;;;;;;;;;;;;;9.66;100.00;98677.75;7384778;19;19911;-58
2022/10/06 03:44:33;;;;;;;;;;;;;;;9.80;100.00;98670.03;7383477;19;19925;-60
2022/10/06 03:47:04;;;;;;;;;;;;;;;9.90;100.00;98673.03;7379948;19;19921;-58
2022/10/06 03:49:34;;;;;;;;;;;;;;;9.63;100.00;98675.25;7383191;19;20335;-56
2022/10/06 03:52:04;;;;;;;;;;;;;;;9.73;100.00;98678.31;7384747;19;20232;-54
2022/10/06 03:54:41;;;;;;;;;;;;;;;9.66;100.00;98680.38;7378658;19;20441;-63
2022/10/06 03:57:11;;;;;;;;;;;;;;;9.90;100.00;98683.53;7387405;19;19919;-55
2022/10/06 03:59:41;;;;;;;;;;;;;;;9.51;100.00;98685.56;7391468;19;19978;-58
2022/10/06 04:02:11;;;;;;;;;;;;;;;9.55;100.00;98679.22;7391376;19;19922;-54
2022/10/06 04:04:43;;;;;;;;;;;;;;;9.75;100.00;98693.06;7388423;19;19988;-60
2022/10/06 04:07:14;;;;;;;;;;;;;;;9.86;100.00;98695.13;7389841;19;20012;-62
2022/10/06 04:09:49;;;;;;;;;;;;;;;9.79;100.00;98709.50;7389336;19;19915;-59
2022/10/06 04:12:20;;;;;;;;;;;;;;;9.53;100.00;98695.06;7393367;19;19915;-59
2022/10/06 04:14:50;;;;;;;;;;;;;;;9.59;100.00;98697.38;7387736;19;19907;-59
2022/10/06 04:17:19;;;;;;;;;;;;;;;9.64;100.00;98705.03;7392223;19;19942;-59
2022/10/06 04:19:48;;;;;;;;;;;;;;;9.32;100.00;98706.59;7392925;19;20311;-59
2022/10/06 04:22:18;;;;;;;;;;;;;;;9.41;100.00;98706.19;7385238;19;20268;-59
2022/10/06 04:24:50;;;;;;;;;;;;;;;9.68;100.00;98707.44;7393438;19;20327;-59
2022/10/06 04:27:32;;;;;;;;;;;;;;;9.53;100.00;98718.72;7391046;19;19918;-58
2022/10/06 04:30:15;;;;;;;;;;;;;;;9.52;100.00;98718.78;7392143;19;19966;-59
2022/10/06 04:32:46;;;;;;;;;;;;;;;9.58;100.00;98715.81;7390932;19;19918;-60
2022/10/06 04:35:16;;;;;;;;;;;;;;;9.76;100.00;98713.16;7384707;19;20334;-59
2022/10/06 04:37:46;;;;;;;;;;;;;;;9.80;100.00;98719.09;7392879;19;19919;-59
2022/10/06 04:40:20;;;;;;;;;;;;;;;9.64;100.00;98721.66;7390770;19;20414;-59
2022/10/06 04:42:51;;;;;;;;;;;;;;;9.70;100.00;98718.69;7388520;19;21059;-59
2022/10/06 04:45:23;;;;;;;;;;;;;;;9.55;100.00;98719.47;7390599;19;19938;-54
2022/10/06 04:47:53;;;;;;;;;;;;;;;9.61;100.00;98721.78;7387875;19;20251;-64
2022/10/06 04:50:23;;;;;;;;;;;;;;;9.55;100.00;98732.59;7385205;19;19915;-59
2022/10/06 04:53:15;;;;;;;;;;;;;;;9.58;100.00;98726.34;7380797;19;21009;-66
2022/10/06 04:55:49;;;;;;;;;;;;;;;9.65;100.00;98733.00;7382679;19;19915;-60
2022/10/06 04:58:18;;;;;;;;;;;;;;;9.46;100.00;98732.19;7387752;19;19915;-60
2022/10/06 05:00:51;;;;;;;;;;;;;;;9.68;100.00;98724.97;7381205;19;19914;-58
2022/10/06 05:03:21;;;;;;;;;;;;;;;9.52;100.00;98738.00;7387327;19;19937;-57
2022/10/06 05:05:55;;;;;;;;;;;;;;;9.37;100.00;98738.75;7389624;19;20242;-59
2022/10/06 05:08:25;;;;;;;;;;;;;;;9.62;100.00;98738.44;7383403;19;19948;-61
2022/10/06 05:11:04;;;;;;;;;;;;;;;9.55;100.00;98740.47;7386228;19;19926;-63
2022/10/06 05:13:37;;;;;;;;;;;;;;;9.38;100.00;98744.84;7382944;19;20232;-62
2022/10/06 05:16:13;;;;;;;;;;;;;;;9.61;100.00;98742.81;7386533;19;20255;-60
2022/10/06 05:18:44;;;;;;;;;;;;;;;9.67;100.00;98739.91;7386963;19;19918;-60
2022/10/06 05:21:15;;;;;;;;;;;;;;;9.31;100.00;98746.06;7379916;19;20470;-61
2022/10/06 05:23:46;;;;;;;;;;;;;;;9.35;100.00;98748.47;7383746;19;19918;-61
2022/10/06 05:26:20;;;;;;;;;;;;;;;9.48;100.00;98751.38;7386332;19;19925;-60
2022/10/06 05:28:50;;;;;;;;;;;;;;;9.69;100.00;98752.94;7386355;19;20444;-59
2022/10/06 05:31:28;;;;;;;;;;;;;;;9.71;100.00;98751.09;7385608;19;19915;-59
2022/10/06 05:33:59;;;;;;;;;;;;;;;9.92;100.00;98756.13;7380978;19;19915;-59
2022/10/06 05:36:31;;;;;;;;;;;;;;;9.78;100.00;98758.63;7387368;19;21084;-59
2022/10/06 05:39:01;;;;;;;;;;;;;;;10.07;100.00;98755.34;7389399;19;20252;-59
2022/10/06 05:41:40;;;;;;;;;;;;;;;10.05;100.00;98761.63;7381574;19;19918;-61
2022/10/06 05:44:12;;;;;;;;;;;;;;;10.10;100.00;98765.72;7384567;19;20644;-59
2022/10/06 05:46:46;;;;;;;;;;;;;;;10.09;100.00;98774.53;7381097;19;20355;-59
2022/10/06 05:49:16;;;;;;;;;;;;;;;10.50;100.00;98775.03;7386214;19;19922;-59
2022/10/06 05:52:01;;;;;;;;;;;;;;;10.25;100.00;98783.34;7383426;19;19929;-65
2022/10/06 05:54:34;;;;;;;;;;;;;;;10.29;100.00;98782.25;7383559;19;19970;-57
2022/10/06 05:57:06;;;;;;;;;;;;;;;10.33;100.00;98789.06;7384435;19;19923;-53
2022/10/06 05:59:37;;;;;;;;;;;;;;;10.30;100.00;98798.91;7378505;19;19950;-60
2022/10/06 06:02:11;;;;;;;;;;;;;;;10.61;100.00;98797.25;7384163;19;19922;-59
2022/10/06 06:04:46;;;;;;;;;;;;;;;10.50;100.00;98796.09;7383828;19;19914;-59
2022/10/06 06:07:16;;;;;;;;;;;;;;;10.58;100.00;98793.94;7382754;19;19923;-60
2022/10/06 06:09:47;;;;;;;;;;;;;;;10.58;100.00;98802.66;7385778;19;20272;-60
2022/10/06 06:12:20;;;;;;;;;;;;;;;10.89;100.00;98802.78;7385997;19;20344;-65
2022/10/06 06:18:03;;;;;;;;;;;;;;;10.75;100.00;98805.31;7385946;19;19947;-58
2022/10/06 06:20:34;;;;;;;;;;;;;;;10.87;100.00;98799.38;7384843;19;19986;-56
2022/10/06 06:23:04;;;;;;;;;;;;;;;10.92;100.00;98805.25;7380812;19;19921;-68
2022/10/06 06:25:33;;;;;;;;;;;;;;;10.79;100.00;98816.50;7387950;19;20014;-60
2022/10/06 06:28:07;;;;;;;;;;;;;;;10.76;100.00;98814.88;7388007;19;19918;-59
2022/10/06 06:30:37;;;;;;;;;;;;;;;11.12;100.00;98817.34;7379904;19;19915;-60
2022/10/06 06:33:10;;;;;;;;;;;;;;;11.14;100.00;98820.75;7384609;19;19914;-62
2022/10/06 06:35:41;;;;;;;;;;;;;;;10.88;100.00;98823.94;7388041;19;19910;-59
2022/10/06 06:38:12;;;;;;;;;;;;;;;10.92;100.00;98825.47;7381978;19;19915;-59
2022/10/06 06:40:42;;;;;;;;;;;;;;;11.03;100.00;98837.13;7385750;19;19978;-59
2022/10/06 06:43:17;;;;;;;;;;;;;;;11.18;100.00;98836.31;7383967;19;19922;-64
2022/10/06 06:46:18;;;;;;;;;;;;;;;11.01;100.00;98846.91;7383791;19;20371;-65
2022/10/06 06:49:10;;;;;;;;;;;;;;;11.25;100.00;98840.31;7383344;19;19915;-62
2022/10/06 06:51:53;;;;;;;;;;;;;;;10.97;100.00;98862.94;7384781;19;19918;-60
2022/10/06 06:54:26;;;;;;;;;;;;;;;11.22;100.00;98861.56;7385501;19;20327;-60
2022/10/06 06:57:02;;;;;;;;;;;;;;;11.35;100.00;98852.03;7384991;19;19925;-60
2022/10/06 06:59:36;;;;;;;;;;;;;;;11.47;100.00;98854.00;7376390;19;19914;-62
2022/10/06 07:02:08;;;;;;;;;;;;;;;11.64;100.00;98857.53;7385088;19;20251;-59
2022/10/06 07:04:42;;;;;;;;;;;;;;;11.49;100.00;98861.00;7385304;19;19926;-60
2022/10/06 07:07:14;;;;;;;;;;;;;;;12.05;100.00;98864.84;7384496;19;19918;-61
2022/10/06 07:09:44;;;;;;;;;;;;;;;12.07;100.00;98877.91;7384514;19;20268;-60
2022/10/06 07:12:18;;;;;;;;;;;;;;;12.19;100.00;98870.16;7377459;19;19935;-61
2022/10/06 07:25:49;;;;;;;;;;;;;;;12.57;100.00;98879.38;7384265;19;19925;-60
2022/10/06 07:28:19;;;;;;;;;;;;;;;12.76;100.00;98893.19;7381435;19;19922;-68
2022/10/06 07:30:52;;;;;;;;;;;;;;;12.65;100.00;98882.41;7386429;19;19970;-60
2022/10/06 07:33:23;;;;;;;;;;;;;;;12.26;100.00;98883.88;7385509;19;19984;-60
2022/10/06 07:35:54;;;;;;;;;;;;;;;12.01;100.00;98891.47;7379453;19;19919;-61
2022/10/06 07:38:26;;;;;;;;;;;;;;;12.15;100.00;98889.75;7385824;19;19923;-59
2022/10/06 07:40:58;;;;;;;;;;;;;;;12.48;100.00;98900.16;7384542;19;19928;-59
2022/10/06 07:43:32;;;;;;;;;;;;;;;12.40;100.00;98905.88;7382564;19;19922;-59
2022/10/06 07:46:05;;;;;;;;;;;;;;;12.62;100.00;98898.41;7379715;19;20331;-61
2022/10/06 07:48:40;;;;;;;;;;;;;;;12.65;100.00;98903.53;7378121;19;19915;-59
2022/10/06 07:51:14;;;;;;;;;;;;;;;12.77;100.00;98902.78;7383490;19;20313;-60
2022/10/06 07:53:45;;;;;;;;;;;;;;;12.63;100.00;98904.56;7385744;19;19941;-59
2022/10/06 07:56:22;;;;;;;;;;;;;;;12.66;100.00;98910.50;7377758;19;20709;-61
2022/10/06 07:58:55;;;;;;;;;;;;;;;12.69;100.00;98920.03;7384014;19;19943;-59
2022/10/06 08:01:29;;;;;;;;;;;;;;;12.68;100.00;98908.63;7382584;19;19986;-66
2022/10/06 08:03:59;;;;;;;;;;;;;;;12.72;100.00;98919.84;7385129;19;20355;-63
2022/10/06 08:06:28;;;;;;;;;;;;;;;12.65;100.00;98929.91;7386790;19;19951;-60
2022/10/06 08:08:57;;;;;;;;;;;;;;;12.88;100.00;98928.56;7381917;19;19932;-62
2022/10/06 08:11:26;;;;;;;;;;;;;;;13.04;100.00;98932.00;7383435;19;19922;-60
2022/10/06 08:13:56;;;;;;;;;;;;;;;13.17;100.00;98940.91;7382793;19;19918;-60
2022/10/06 08:16:30;;;;;;;;;;;;;;;13.14;100.00;98939.31;7379525;19;19925;-65
2022/10/06 08:19:01;;;;;;;;;;;;;;;13.07;100.00;98945.06;7384992;19;19922;-54
2022/10/06 08:21:34;;;;;;;;;;;;;;;13.11;100.00;98943.94;7383412;19;19964;-54
2022/10/06 08:24:04;;;;;;;;;;;;;;;13.15;100.00;98934.88;7378622;19;19911;-54
2022/10/06 08:26:35;;;;;;;;;;;;;;;13.34;100.00;98946.91;7387352;19;19918;-56
2022/10/06 08:29:05;;;;;;;;;;;;;;;13.31;100.00;98947.06;7386367;19;19923;-59
2022/10/06 08:31:40;;;;;;;;;;;;;;;13.39;100.00;98950.09;7384198;19;19923;-60
2022/10/06 08:34:10;;;;;;;;;;;;;;;13.39;100.00;98951.88;7383538;19;19918;-60
2022/10/06 08:36:41;;;;;;;;;;;;;;;13.45;100.00;98944.44;7383286;19;20378;-66
2022/10/06 08:39:10;;;;;;;;;;;;;;;13.63;100.00;98953.03;7386056;19;19923;-61
2022/10/06 08:41:43;;;;;;;;;;;;;;;13.55;100.00;98950.03;7385310;19;19974;-65
2022/10/06 08:44:20;;;;;;;;;;;;;;;13.81;100.00;98946.59;7383118;19;19922;-67
2022/10/06 08:46:59;;;;;;;;;;;;;;;13.75;100.00;98947.84;7392540;19;19927;-61
2022/10/06 08:49:33;;;;;;;;;;;;;;;13.78;100.00;98942.34;7390537;19;19914;-68
2022/10/06 08:52:08;;;;;;;;;;;;;;;13.91;100.00;98947.69;7393017;19;19926;-61
2022/10/06 08:54:39;;;;;;;;;;;;;;;14.14;100.00;98950.63;7393019;19;20320;-61
2022/10/06 08:57:14;;;;;;;;;;;;;;;14.11;100.00;98942.88;7388404;19;19910;-61
2022/10/06 08:59:51;;;;;;;;;;;;;;;14.03;100.00;98949.59;7389777;19;19919;-60
2022/10/06 09:02:31;;;;;;;;;;;;;;;14.23;100.00;98950.06;7386970;19;19926;-69
2022/10/06 09:05:02;;;;;;;;;;;;;;;14.43;100.00;98948.75;7395549;19;19942;-60
2022/10/06 09:07:40;;;;;;;;;;;;;;;14.45;100.00;98942.41;7388455;19;19978;-62
2022/10/06 09:10:27;;;;;;;;;;;;;;;14.48;100.00;98955.47;7392143;19;19915;-59
2022/10/06 09:12:59;;;;;;;;;;;;;;;14.69;100.00;98949.69;7392547;19;19919;-59
2022/10/06 09:15:35;;;;;;;;;;;;;;;14.67;100.00;98956.88;7389752;19;19919;-60
2022/10/06 09:18:12;;;;;;;;;;;;;;;14.76;100.00;98954.47;7391640;19;20319;-60
2022/10/06 09:20:45;;;;;;;;;;;;;;;14.79;100.00;98964.03;7382778;19;20271;-59
2022/10/06 09:23:46;;;;;;;;;;;;;;;14.65;100.00;98964.91;7389294;19;19943;-60
2022/10/06 09:26:07;;;;;;;;;;;;;;;14.74;100.00;98976.72;7387033;19;19951;-62
2022/10/06 09:28:39;;;;;;;;;;;;;;;14.83;100.00;98978.78;7391977;19;19919;-62
2022/10/06 09:31:20;;;;;;;;;;;;;;;14.71;100.00;98979.56;7390599;19;19919;-63
2022/10/06 09:33:54;;;;;;;;;;;;;;;14.85;100.00;98984.78;7390105;19;20242;-61
2022/10/06 09:36:28;;;;;;;;;;;;;;;14.75;100.00;98973.97;7388120;19;20415;-60
2022/10/06 09:38:59;;;;;;;;;;;;;;;14.98;100.00;98991.81;7386845;19;19942;-66
2022/10/06 09:41:31;;;;;;;;;;;;;;;14.98;100.00;98994.47;7388992;19;19922;-63
2022/10/06 09:44:01;;;;;;;;;;;;;;;15.16;100.00;98995.09;7388674;19;19976;-68
2022/10/06 09:46:33;;;;;;;;;;;;;;;15.71;100.00;98995.66;7390109;19;19922;-61
2022/10/06 09:49:17;;;;;;;;;;;;;;;15.68;100.00;99007.31;7389093;19;19915;-54
2022/10/06 09:52:01;;;;;;;;;;;;;;;15.64;100.00;99013.78;7384000;19;20328;-60
2022/10/06 09:54:33;;;;;;;;;;;;;;;16.00;100.00;99005.09;7389725;19;19927;-65
2022/10/06 09:57:09;;;;;;;;;;;;;;;15.99;100.00;98995.41;7371346;19;20323;-60
2022/10/06 09:59:43;;;;;;;;;;;;;;;15.87;100.00;98999.78;7389170;19;19950;-61
2022/10/06 10:02:25;;;;;;;;;;;;;;;15.79;100.00;99010.06;7384098;19;19924;-68
2022/10/06 10:04:59;;;;;;;;;;;;;;;15.38;100.00;99001.47;7390977;19;19918;-60
2022/10/06 10:07:29;;;;;;;;;;;;;;;15.34;100.00;99000.00;7391079;19;20274;-61
2022/10/06 10:10:19;;;;;;;;;;;;;;;15.61;100.00;99006.06;7387947;19;20642;-60
2022/10/06 10:12:54;;;;;;;;;;;;;;;15.48;100.00;99010.50;7389476;19;19914;-61
2022/10/06 10:15:28;;;;;;;;;;;;;;;15.51;100.00;99017.41;7388357;19;20824;-60
2022/10/06 10:17:58;;;;;;;;;;;;;;;15.79;100.00;99007.41;7390968;19;19919;-61
2022/10/06 10:20:33;;;;;;;;;;;;;;;15.55;100.00;99011.78;7381234;19;19970;-66
2022/10/06 10:23:05;;;;;;;;;;;;;;;15.90;100.00;99009.34;7384232;19;20323;-61
2022/10/06 10:25:46;;;;;;;;;;;;;;;15.89;100.00;99011.13;7387389;19;19947;-61
2022/10/06 10:28:25;;;;;;;;;;;;;;;15.63;100.00;99008.59;7383681;19;19935;-60
2022/10/06 10:31:01;;;;;;;;;;;;;;;15.40;100.00;99006.69;7386998;19;19923;-63
2022/10/06 10:33:34;;;;;;;;;;;;;;;15.62;100.00;99020.16;7386509;19;19918;-60
2022/10/06 10:36:09;;;;;;;;;;;;;;;16.14;100.00;99010.28;7387298;19;19944;-61
2022/10/06 10:38:41;;;;;;;;;;;;;;;16.41;100.00;99017.13;7379191;19;19919;-64
2022/10/06 10:41:15;;;;;;;;;;;;;;;16.33;100.00;99022.13;7387148;19;19919;-61
2022/10/06 10:43:50;;;;;;;;;;;;;;;16.09;100.00;99020.38;7384012;19;19943;-61
2022/10/06 10:46:24;;;;;;;;;;;;;;;16.40;100.00;99020.75;7383493;19;19946;-60
2022/10/06 10:48:56;;;;;;;;;;;;;;;15.97;100.00;99030.03;7377837;19;20446;-61
2022/10/06 10:51:31;;;;;;;;;;;;;;;15.77;100.00;99046.50;7379191;19;19910;-65
2022/10/06 10:54:03;;;;;;;;;;;;;;;15.69;100.00;99038.22;7379386;19;19925;-60
2022/10/06 10:56:35;;;;;;;;;;;;;;;15.79;100.00;99038.44;7387436;19;20533;-61
2022/10/06 10:59:09;;;;;;;;;;;;;;;15.77;100.00;99043.84;7380090;19;19914;-61
2022/10/06 11:01:41;;;;;;;;;;;;;;;15.70;100.00;99042.56;7383430;19;20009;-59
2022/10/06 11:04:12;;;;;;;;;;;;;;;15.57;100.00;99039.03;7381760;19;19934;-61
2022/10/06 11:07:03;;;;;;;;;;;;;;;15.99;100.00;99040.53;7380714;19;19910;-61
2022/10/06 11:09:41;;;;;;;;;;;;;;;15.59;100.00;99044.25;7383326;19;19915;-67
2022/10/06 11:12:19;;;;;;;;;;;;;;;15.73;100.00;99052.97;7387516;19;19927;-61
2022/10/06 11:14:56;;;;;;;;;;;;;;;15.99;100.00;99046.69;7387261;19;19915;-60
2022/10/06 11:17:38;;;;;;;;;;;;;;;15.91;100.00;99051.69;7388073;19;20484;-61
2022/10/06 11:20:18;;;;;;;;;;;;;;;16.23;100.00;99054.78;7380532;19;19935;-61
2022/10/06 11:22:50;;;;;;;;;;;;;;;16.18;100.00;99052.44;7381693;19;19936;-62
2022/10/06 11:25:24;;;;;;;;;;;;;;;16.49;100.00;99043.16;7384975;19;19933;-60
2022/10/06 11:28:00;;;;;;;;;;;;;;;16.09;100.00;99044.28;7379894;19;20243;-61
2022/10/06 11:30:32;;;;;;;;;;;;;;;16.33;100.00;99050.50;7386719;19;19931;-61
2022/10/06 11:33:05;;;;;;;;;;;;;;;16.13;100.00;99046.63;7383061;19;19946;-61
2022/10/06 11:35:37;;;;;;;;;;;;;;;16.53;100.00;99052.59;7386902;19;20320;-61
2022/10/06 11:38:10;;;;;;;;;;;;;;;16.81;100.00;99041.63;7387309;19;20022;-65
2022/10/06 11:40:50;;;;;;;;;;;;;;;16.96;100.00;99045.88;7381889;19;20327;-62
2022/10/06 11:43:24;;;;;;;;;;;;;;;17.14;100.00;99050.66;7385106;19;20359;-60
2022/10/06 11:45:59;;;;;;;;;;;;;;;16.89;100.00;99042.75;7386403;19;19943;-69
2022/10/06 11:48:30;;;;;;;;;;;;;;;16.70;100.00;99049.56;7384417;19;19919;-61
2022/10/06 11:51:19;;;;;;;;;;;;;;;16.77;100.00;99046.34;7387269;19;20309;-61
2022/10/06 11:53:49;;;;;;;;;;;;;;;16.40;100.00;99062.38;7385292;19;20231;-61
2022/10/06 11:56:37;;;;;;;;;;;;;;;16.27;100.00;99062.41;7386705;19;19911;-60
2022/10/06 11:59:21;;;;;;;;;;;;;;;16.21;100.00;99068.16;7387336;19;20370;-60
2022/10/06 12:01:59;;;;;;;;;;;;;;;16.23;100.00;99066.22;7386628;19;19926;-61
2022/10/06 12:04:28;;;;;;;;;;;;;;;16.30;100.00;99069.31;7387093;19;19926;-60
2022/10/06 12:07:06;;;;;;;;;;;;;;;16.38;100.00;99072.28;7386789;19;19922;-60
2022/10/06 12:09:49;;;;;;;;;;;;;;;16.49;100.00;99072.38;7381217;19;19919;-61
2022/10/06 12:12:34;;;;;;;;;;;;;;;16.49;100.00;99072.38;7384140;19;19948;-62
2022/10/06 12:15:15;;;;;;;;;;;;;;;16.51;100.00;99065.97;7380504;19;19917;-54
2022/10/06 12:17:49;;;;;;;;;;;;;;;16.35;100.00;99069.84;7383750;19;19915;-62
2022/10/06 12:20:22;;;;;;;;;;;;;;;16.21;100.00;99080.59;7385693;19;19918;-61
2022/10/06 12:22:53;;;;;;;;;;;;;;;16.37;100.00;99078.56;7392116;19;20258;-62
2022/10/06 12:25:27;;;;;;;;;;;;;;;16.40;100.00;99076.53;7392289;19;19922;-61
2022/10/06 12:28:04;;;;;;;;;;;;;;;16.58;100.00;99085.84;7387939;19;19938;-62
2022/10/06 12:30:46;;;;;;;;;;;;;;;16.31;100.00;99085.16;7388111;19;19915;-61
2022/10/06 12:33:18;;;;;;;;;;;;;;;16.23;100.00;99082.16;7391166;19;20207;-60
2022/10/06 12:35:48;;;;;;;;;;;;;;;16.29;100.00;99084.41;7393393;19;19919;-67
2022/10/06 12:38:32;;;;;;;;;;;;;;;16.52;100.00;99088.09;7391931;19;19940;-65
2022/10/06 12:41:02;;;;;;;;;;;;;;;16.25;100.00;99090.03;7390314;19;20250;-61
2022/10/06 12:43:33;;;;;;;;;;;;;;;15.90;100.00;99091.63;7391213;19;20331;-61
2022/10/06 12:46:06;;;;;;;;;;;;;;;15.70;100.00;99097.44;7385637;19;19915;-61
2022/10/06 12:48:39;;;;;;;;;;;;;;;15.76;100.00;99110.28;7391046;19;19926;-61
2022/10/06 12:51:20;;;;;;;;;;;;;;;15.79;100.00;99105.59;7389608;19;19942;-65
2022/10/06 12:53:52;;;;;;;;;;;;;;;15.80;100.00;99102.03;7390566;19;20331;-60
2022/10/06 12:56:28;;;;;;;;;;;;;;;15.96;100.00;99107.09;7391289;19;20254;-60
2022/10/06 12:58:58;;;;;;;;;;;;;;;15.98;100.00;99111.38;7389827;19;19918;-61
2022/10/06 13:01:31;;;;;;;;;;;;;;;15.73;100.00;99107.84;7390886;19;20366;-61
2022/10/06 13:04:01;;;;;;;;;;;;;;;15.58;100.00;99111.53;7381939;19;19918;-67
2022/10/06 13:06:30;;;;;;;;;;;;;;;15.72;100.00;99117.63;7390139;19;19917;-62
2022/10/06 13:09:07;;;;;;;;;;;;;;;15.38;100.00;99134.06;7390411;19;19938;-61
2022/10/06 13:11:36;;;;;;;;;;;;;;;15.35;100.00;99139.56;7380860;19;19919;-60
2022/10/06 13:14:14;;;;;;;;;;;;;;;15.41;100.00;99136.53;7386149;19;20335;-60
2022/10/06 13:16:48;;;;;;;;;;;;;;;15.17;100.00;99135.50;7386129;19;19919;-62
2022/10/06 13:19:20;;;;;;;;;;;;;;;15.42;100.00;99140.88;7388026;19;19915;-61
2022/10/06 13:21:49;;;;;;;;;;;;;;;15.35;100.00;99144.88;7387580;19;19930;-61
2022/10/06 13:24:21;;;;;;;;;;;;;;;15.31;100.00;99142.53;7382592;19;19926;-67